createdAt,value
2023-03-21T00:00:18.540Z,4.63
2023-03-21T00:02:45.114Z,4.10
2023-03-21T00:05:15.905Z,3.97
2023-03-21T00:07:42.814Z,4.30
2023-03-21T00:10:16.540Z,4.07
2023-03-21T00:12:43.159Z,3.83
2023-03-21T00:15:12.730Z,4.17
2023-03-21T00:17:39.636Z,3.90
2023-03-21T00:20:15.010Z,4.00
2023-03-21T00:22:44.329Z,3.77
2023-03-21T00:25:11.016Z,3.93
2023-03-21T00:27:53.684Z,4.20
2023-03-21T00:30:24.083Z,4.00
2023-03-21T00:32:56.616Z,3.60
2023-03-21T00:35:57.553Z,5.13
2023-03-21T00:38:10.684Z,4.30
2023-03-21T00:40:43.759Z,4.60
2023-03-21T00:43:17.445Z,4.43
2023-03-21T00:45:45.190Z,5.63
2023-03-21T00:48:12.486Z,5.40
2023-03-21T00:50:40.231Z,4.80
2023-03-21T00:53:07.017Z,4.50
2023-03-21T00:55:33.717Z,4.63
2023-03-21T00:58:02.316Z,4.83
2023-03-21T01:00:29.840Z,4.77
2023-03-21T01:03:02.684Z,5.27
2023-03-21T01:05:52.443Z,4.63
2023-03-21T01:08:27.956Z,5.70
2023-03-21T01:10:56.630Z,5.20
2023-03-21T01:13:24.965Z,5.23
2023-03-21T01:15:54.441Z,4.80
2023-03-21T01:18:24.917Z,5.40
2023-03-21T01:20:51.648Z,5.17
2023-03-21T01:23:18.373Z,5.10
2023-03-21T01:25:48.009Z,4.93
2023-03-21T01:28:14.507Z,5.63
2023-03-21T01:30:45.824Z,5.57
2023-03-21T01:33:12.356Z,5.33
2023-03-21T01:35:49.240Z,5.27
2023-03-21T01:38:18.345Z,5.50
2023-03-21T01:40:46.501Z,6.13
2023-03-21T01:43:20.413Z,5.90
2023-03-21T01:45:58.783Z,5.33
2023-03-21T01:48:28.350Z,5.70
2023-03-21T01:50:56.404Z,6.07
2023-03-21T01:53:29.893Z,6.20
2023-03-21T01:56:03.894Z,5.50
2023-03-21T01:58:30.645Z,5.67
2023-03-21T02:00:57.540Z,6.00
2023-03-21T02:03:35.350Z,5.77
2023-03-21T02:06:07.762Z,6.47
2023-03-21T02:08:39.641Z,6.00
2023-03-21T02:11:08.034Z,6.27
2023-03-21T02:13:35.478Z,6.57
2023-03-21T02:16:06.412Z,6.60
2023-03-21T02:18:50.529Z,5.80
2023-03-21T02:21:42.009Z,6.60
2023-03-21T02:24:54.511Z,6.40
2023-03-21T02:27:28.209Z,5.97
2023-03-21T02:30:28.161Z,5.87
2023-03-21T02:33:16.277Z,6.17
2023-03-21T02:36:14.783Z,5.87
2023-03-21T02:38:47.608Z,5.30
2023-03-21T02:41:29.686Z,5.33
2023-03-21T02:44:07.552Z,5.00
2023-03-21T02:47:04.667Z,5.70
2023-03-21T02:49:43.047Z,5.30
2023-03-21T02:52:22.905Z,4.83
2023-03-21T02:54:57.195Z,4.27
2023-03-21T02:57:27.054Z,4.40
2023-03-21T03:00:00.404Z,4.00
2023-03-21T03:02:31.710Z,3.87
2023-03-21T03:04:58.781Z,4.03
2023-03-21T03:07:44.518Z,3.77
2023-03-21T03:10:26.114Z,3.73
2023-03-21T03:13:25.756Z,3.70
2023-03-21T03:16:07.576Z,3.63
2023-03-21T03:18:53.872Z,4.20
2023-03-21T03:21:25.872Z,4.20
2023-03-21T03:23:59.133Z,4.10
2023-03-21T03:26:39.539Z,3.80
2023-03-21T03:29:13.259Z,4.30
2023-03-21T03:31:44.471Z,3.43
2023-03-21T03:34:16.588Z,3.90
2023-03-21T03:36:47.491Z,3.57
2023-03-21T03:39:15.472Z,4.10
2023-03-21T03:42:27.476Z,4.10
2023-03-21T03:44:55.745Z,4.10
2023-03-21T03:47:37.818Z,4.03
2023-03-21T03:50:24.653Z,4.10
2023-03-21T03:53:16.226Z,3.60
2023-03-21T03:55:45.454Z,4.43
2023-03-21T03:58:21.685Z,4.30
2023-03-21T04:00:51.450Z,4.27
2023-03-21T04:03:18.656Z,4.63
2023-03-21T04:05:47.700Z,4.90
2023-03-21T04:08:15.531Z,4.90
2023-03-21T04:10:43.577Z,3.80
2023-03-21T04:13:10.704Z,3.20
2023-03-21T04:15:37.505Z,3.10
2023-03-21T04:18:03.906Z,3.43
2023-03-21T04:20:36.874Z,3.60
2023-03-21T04:23:09.756Z,3.30
2023-03-21T04:25:44.581Z,3.03
2023-03-21T04:28:17.023Z,3.20
2023-03-21T04:30:55.145Z,2.80
2023-03-21T04:33:26.962Z,3.10
2023-03-21T04:35:56.093Z,2.93
2023-03-21T04:38:24.204Z,3.03
2023-03-21T04:40:50.499Z,3.20
2023-03-21T04:43:16.900Z,3.10
2023-03-21T04:45:43.743Z,2.80
2023-03-21T04:48:10.348Z,3.23
2023-03-21T04:50:36.921Z,3.00
2023-03-21T04:53:03.337Z,3.90
2023-03-21T04:55:31.587Z,2.87
2023-03-21T04:57:58.206Z,2.60
2023-03-21T05:00:25.597Z,3.23
2023-03-21T05:02:51.946Z,2.77
2023-03-21T05:05:18.335Z,2.90
2023-03-21T05:07:44.698Z,3.53
2023-03-21T05:10:12.176Z,3.67
2023-03-21T05:12:38.910Z,3.07
2023-03-21T05:15:06.074Z,3.77
2023-03-21T05:17:32.617Z,3.17
2023-03-21T05:19:58.965Z,2.80
2023-03-21T05:22:26.750Z,3.30
2023-03-21T05:24:55.272Z,3.00
2023-03-21T05:27:35.784Z,4.00
2023-03-21T05:30:11.230Z,3.13
2023-03-21T05:32:37.636Z,3.77
2023-03-21T05:35:04.898Z,3.40
2023-03-21T05:37:31.242Z,3.80
2023-03-21T05:39:57.768Z,3.90
2023-03-21T05:42:25.520Z,3.07
2023-03-21T05:44:51.899Z,3.77
2023-03-21T05:47:18.955Z,4.20
2023-03-21T05:49:45.795Z,4.00
2023-03-21T05:52:12.132Z,4.03
2023-03-21T05:54:38.540Z,4.03
2023-03-21T05:57:05.745Z,3.90
2023-03-21T05:59:32.178Z,3.40
2023-03-21T06:01:58.485Z,3.70
2023-03-21T06:04:24.803Z,3.90
2023-03-21T06:06:53.395Z,3.90
2023-03-21T06:09:22.515Z,4.43
2023-03-21T06:11:52.693Z,4.37
2023-03-21T06:14:20.417Z,4.43
2023-03-21T06:16:46.914Z,4.10
2023-03-21T06:19:13.251Z,3.90
2023-03-21T06:21:39.905Z,3.97
2023-03-21T06:24:06.553Z,3.80
2023-03-21T06:26:32.900Z,4.00
2023-03-21T06:28:59.307Z,3.40
2023-03-21T06:31:26.606Z,4.43
2023-03-21T06:33:53.357Z,3.73
2023-03-21T06:36:20.487Z,3.80
2023-03-21T06:38:46.876Z,4.03
2023-03-21T06:41:13.521Z,3.83
2023-03-21T06:43:40.054Z,4.03
2023-03-21T06:46:06.531Z,3.53
2023-03-21T06:48:32.998Z,4.03
2023-03-21T06:50:59.385Z,3.83
2023-03-21T06:53:29.686Z,3.77
2023-03-21T06:55:56.715Z,3.80
2023-03-21T06:58:24.316Z,3.80
2023-03-21T07:00:50.818Z,4.07
2023-03-21T07:03:17.270Z,3.53
2023-03-21T07:05:43.699Z,3.77
2023-03-21T07:08:14.030Z,4.67
2023-03-21T07:10:45.222Z,4.97
2023-03-21T07:13:11.728Z,4.40
2023-03-21T07:15:38.656Z,4.67
2023-03-21T07:18:07.088Z,4.60
2023-03-21T07:20:34.004Z,4.93
2023-03-21T07:23:00.772Z,5.20
2023-03-21T07:25:27.622Z,4.63
2023-03-21T07:27:54.108Z,5.30
2023-03-21T07:30:20.534Z,4.70
2023-03-21T07:32:47.507Z,5.37
2023-03-21T07:35:16.084Z,5.20
2023-03-21T07:37:43.029Z,4.67
2023-03-21T07:40:10.975Z,4.80
2023-03-21T07:42:38.701Z,4.17
2023-03-21T07:45:05.546Z,4.03
2023-03-21T07:47:32.250Z,4.47
2023-03-21T07:49:58.663Z,4.57
2023-03-21T07:52:25.342Z,4.80
2023-03-21T07:54:51.672Z,5.17
2023-03-21T07:57:18.121Z,4.57
2023-03-21T07:59:44.620Z,4.67
2023-03-21T08:02:15.151Z,4.50
2023-03-21T08:04:41.570Z,4.13
2023-03-21T08:07:08.068Z,4.53
2023-03-21T08:09:34.778Z,4.33
2023-03-21T08:12:01.138Z,4.50
2023-03-21T08:14:27.580Z,4.50
2023-03-21T08:16:54.020Z,4.20
2023-03-21T08:19:21.685Z,4.07
2023-03-21T08:21:49.517Z,4.10
2023-03-21T08:24:16.451Z,4.17
2023-03-21T08:26:44.154Z,4.00
2023-03-21T08:29:10.816Z,3.77
2023-03-21T08:31:37.180Z,4.20
2023-03-21T08:34:03.523Z,4.57
2023-03-21T08:36:31.443Z,3.73
2023-03-21T08:39:05.348Z,4.20
2023-03-21T08:41:33.065Z,4.20
2023-03-21T08:43:59.397Z,3.93
2023-03-21T08:46:26.745Z,3.97
2023-03-21T08:48:54.314Z,4.13
2023-03-21T08:51:20.749Z,4.20
2023-03-21T08:53:49.243Z,3.93
2023-03-21T08:56:15.694Z,4.03
2023-03-21T08:58:42.061Z,3.93
2023-03-21T09:01:11.183Z,4.37
2023-03-21T09:03:38.720Z,4.07
2023-03-21T09:06:05.202Z,4.00
2023-03-21T09:08:31.579Z,3.97
2023-03-21T09:10:58.142Z,4.20
2023-03-21T09:13:24.962Z,4.13
2023-03-21T09:15:52.886Z,4.60
2023-03-21T09:18:22.980Z,3.80
2023-03-21T09:20:50.377Z,4.77
2023-03-21T09:23:16.875Z,4.17
2023-03-21T09:25:45.453Z,3.93
2023-03-21T09:28:13.117Z,3.93
2023-03-21T09:30:39.603Z,4.20
2023-03-21T09:33:12.932Z,3.90
2023-03-21T09:35:39.695Z,4.30
2023-03-21T09:38:06.832Z,3.80
2023-03-21T09:40:55.785Z,3.70
2023-03-21T09:43:31.931Z,4.03
2023-03-21T09:46:13.380Z,4.30
2023-03-21T09:49:00.117Z,4.37
2023-03-21T09:51:31.576Z,3.97
2023-03-21T09:54:01.263Z,3.87
2023-03-21T09:56:28.000Z,4.20
2023-03-21T09:58:59.220Z,3.77
2023-03-21T10:01:32.804Z,3.60
2023-03-21T10:04:03.384Z,3.60
2023-03-21T10:06:31.628Z,4.03
2023-03-21T10:09:06.529Z,4.47
2023-03-21T10:11:46.040Z,4.60
2023-03-21T10:14:18.884Z,5.13
2023-03-21T10:16:52.095Z,4.30
2023-03-21T10:19:19.875Z,4.20
2023-03-21T10:22:00.780Z,4.20
2023-03-21T10:24:30.340Z,4.37
2023-03-21T10:26:57.365Z,4.20
2023-03-21T10:29:28.516Z,4.53
2023-03-21T10:31:55.770Z,4.53
2023-03-21T10:34:33.068Z,4.20
2023-03-21T10:37:04.367Z,4.43
2023-03-21T10:39:42.687Z,4.77
2023-03-21T10:42:31.305Z,4.93
2023-03-21T10:44:58.342Z,4.87
2023-03-21T10:47:35.905Z,4.33
2023-03-21T10:50:07.765Z,4.50
2023-03-21T10:52:37.250Z,4.70
2023-03-21T10:55:21.920Z,4.67
2023-03-21T10:57:53.027Z,4.30
2023-03-21T11:00:23.036Z,4.30
2023-03-21T11:02:51.633Z,4.57
2023-03-21T11:05:24.320Z,4.67
2023-03-21T11:08:03.724Z,4.20
2023-03-21T11:10:48.119Z,4.77
2023-03-21T11:13:23.234Z,4.87
2023-03-21T11:15:56.161Z,4.97
2023-03-21T11:18:27.395Z,4.67
2023-03-21T11:20:56.925Z,4.70
2023-03-21T11:23:28.727Z,4.23
2023-03-21T11:25:55.927Z,4.20
2023-03-21T11:28:24.196Z,5.20
2023-03-21T11:30:54.367Z,5.43
2023-03-21T11:33:23.306Z,4.37
2023-03-21T11:36:19.043Z,4.43
2023-03-21T11:38:50.384Z,4.37
2023-03-21T11:41:25.537Z,4.07
2023-03-21T11:43:53.362Z,4.57
2023-03-21T11:46:24.961Z,4.43
2023-03-21T11:48:52.107Z,4.83
2023-03-21T11:51:40.237Z,4.80
2023-03-21T11:54:14.861Z,4.50
2023-03-21T11:56:49.322Z,4.93
2023-03-21T11:59:16.008Z,4.53
2023-03-21T12:01:57.212Z,4.30
2023-03-21T12:04:43.030Z,4.47
2023-03-21T12:07:16.197Z,4.67
2023-03-21T12:10:18.050Z,4.50
2023-03-21T12:12:55.526Z,5.17
2023-03-21T12:15:32.502Z,4.73
2023-03-21T12:18:27.992Z,5.30
2023-03-21T12:20:59.212Z,4.87
2023-03-21T12:23:35.610Z,5.03
2023-03-21T12:26:19.243Z,4.90
2023-03-21T12:29:26.988Z,5.33
2023-03-21T12:31:56.310Z,5.47
2023-03-21T12:34:52.788Z,5.00
2023-03-21T12:37:37.025Z,4.93
2023-03-21T12:40:21.990Z,5.70
2023-03-21T12:43:02.460Z,5.20
2023-03-21T12:45:46.150Z,5.63
2023-03-21T12:48:17.884Z,5.20
2023-03-21T12:50:45.745Z,5.37
2023-03-21T12:53:21.711Z,5.70
2023-03-21T12:55:48.142Z,5.67
2023-03-21T12:58:19.669Z,5.80
2023-03-21T13:00:49.182Z,5.53
2023-03-21T13:03:40.188Z,5.37
2023-03-21T13:06:10.330Z,5.97
2023-03-21T13:08:46.218Z,5.80
2023-03-21T13:11:19.651Z,5.80
2023-03-21T13:13:46.104Z,5.80
2023-03-21T13:16:14.683Z,5.27
2023-03-21T13:18:46.806Z,5.87
2023-03-21T13:21:16.810Z,5.87
2023-03-21T13:24:00.804Z,5.30
2023-03-21T13:26:38.810Z,5.40
2023-03-21T13:29:14.364Z,5.77
2023-03-21T13:31:54.136Z,5.60
2023-03-21T13:34:23.664Z,6.20
2023-03-21T13:36:52.353Z,5.70
2023-03-21T13:39:25.030Z,6.23
2023-03-21T13:41:52.172Z,5.40
2023-03-21T13:44:22.074Z,6.07
2023-03-21T13:47:04.222Z,5.17
2023-03-21T13:49:34.041Z,5.70
2023-03-21T13:52:22.074Z,5.90
2023-03-21T13:54:52.845Z,6.10
2023-03-21T13:57:38.046Z,5.70
2023-03-21T14:00:18.813Z,5.93
2023-03-21T14:02:58.731Z,5.30
2023-03-21T14:05:27.016Z,5.33
2023-03-21T14:08:12.386Z,5.97
2023-03-21T14:10:54.155Z,6.10
2023-03-21T14:13:24.566Z,5.80
2023-03-21T14:16:07.607Z,5.90
2023-03-21T14:18:53.585Z,6.00
2023-03-21T14:21:25.082Z,6.63
2023-03-21T14:24:11.990Z,7.90
2023-03-21T14:26:44.188Z,7.03
2023-03-21T14:29:26.297Z,7.30
2023-03-21T14:31:55.356Z,7.60
2023-03-21T14:34:23.179Z,7.33
2023-03-21T14:36:57.796Z,7.03
2023-03-21T14:39:32.828Z,7.07
2023-03-21T14:42:06.380Z,7.27
2023-03-21T14:44:53.375Z,7.73
2023-03-21T14:47:23.400Z,7.23
2023-03-21T14:49:50.725Z,6.63
2023-03-21T14:52:31.396Z,6.43
2023-03-21T14:54:58.864Z,6.23
2023-03-21T14:57:28.825Z,6.47
2023-03-21T14:59:59.262Z,6.20
2023-03-21T15:02:31.485Z,6.27
2023-03-21T15:05:06.052Z,5.80
2023-03-21T15:07:36.149Z,5.63
2023-03-21T15:10:07.022Z,5.70
2023-03-21T15:12:33.641Z,5.90
2023-03-21T15:15:01.655Z,6.00
2023-03-21T15:17:29.059Z,5.80
2023-03-21T15:19:55.500Z,6.67
2023-03-21T15:22:36.497Z,6.97
2023-03-21T15:25:16.971Z,7.03
2023-03-21T15:27:43.990Z,6.43
2023-03-21T15:30:24.102Z,5.97
2023-03-21T15:32:51.025Z,6.40
2023-03-21T15:35:26.332Z,5.87
2023-03-21T15:37:57.986Z,6.10
2023-03-21T15:40:31.071Z,6.40
2023-03-21T15:43:15.538Z,5.60
2023-03-21T15:45:51.054Z,5.50
2023-03-21T15:48:26.064Z,5.00
2023-03-21T15:51:00.306Z,5.50
2023-03-21T15:53:26.746Z,5.73
2023-03-21T15:55:57.243Z,5.40
2023-03-21T15:58:26.451Z,5.87
2023-03-21T16:00:55.662Z,5.70
2023-03-21T16:03:25.864Z,5.60
2023-03-21T16:06:17.335Z,5.53
2023-03-21T16:08:52.671Z,5.90
2023-03-21T16:11:18.925Z,5.80
2023-03-21T16:13:45.821Z,6.23
2023-03-21T16:16:21.930Z,6.40
2023-03-21T16:18:48.665Z,6.27
2023-03-21T16:21:18.101Z,5.97
2023-03-21T16:23:45.501Z,6.70
2023-03-21T16:26:14.137Z,6.80
2023-03-21T16:28:40.623Z,6.33
2023-03-21T16:31:12.042Z,6.70
2023-03-21T16:33:38.453Z,7.83
2023-03-21T16:36:07.480Z,6.90
2023-03-21T16:38:33.819Z,6.90
2023-03-21T16:41:01.773Z,6.90
2023-03-21T16:43:28.104Z,6.43
2023-03-21T16:45:54.570Z,6.67
2023-03-21T16:48:21.058Z,7.10
2023-03-21T16:50:48.000Z,6.37
2023-03-21T16:53:14.438Z,7.00
2023-03-21T16:55:40.961Z,7.00
2023-03-21T16:58:07.275Z,7.80
2023-03-21T17:00:33.970Z,7.30
2023-03-21T17:03:02.442Z,7.23
2023-03-21T17:05:32.053Z,6.90
2023-03-21T17:08:01.977Z,6.73
2023-03-21T17:10:30.991Z,7.03
2023-03-21T17:12:57.309Z,6.40
2023-03-21T17:15:23.689Z,7.83
2023-03-21T17:17:50.235Z,7.40
2023-03-21T17:20:18.980Z,7.17
2023-03-21T17:22:45.708Z,7.83
2023-03-21T17:25:12.165Z,8.10
2023-03-21T17:27:38.785Z,6.90
2023-03-21T17:30:16.459Z,6.97
2023-03-21T17:32:42.967Z,7.17
2023-03-21T17:35:09.346Z,6.80
2023-03-21T17:37:38.470Z,6.73
2023-03-21T17:40:07.041Z,7.10
2023-03-21T17:42:33.837Z,8.27
2023-03-21T17:45:00.182Z,8.57
2023-03-21T17:47:26.535Z,7.27
2023-03-21T17:49:52.933Z,7.63
2023-03-21T17:52:19.305Z,8.70
2023-03-21T17:54:45.638Z,9.53
2023-03-21T17:57:12.030Z,8.80
2023-03-21T17:59:38.375Z,9.47
2023-03-21T18:02:04.755Z,9.13
2023-03-21T18:04:31.370Z,9.87
2023-03-21T18:07:01.151Z,8.30
2023-03-21T18:09:28.427Z,10.13
2023-03-21T18:11:54.717Z,10.00
2023-03-21T18:14:27.814Z,11.27
2023-03-21T18:16:54.738Z,10.27
2023-03-21T18:19:21.131Z,11.83
2023-03-21T18:21:47.477Z,11.97
2023-03-21T18:24:14.711Z,11.83
2023-03-21T18:26:42.178Z,11.23
2023-03-21T18:30:15.787Z,12.40
2023-03-21T18:32:06.674Z,11.50
2023-03-21T18:34:38.737Z,11.43
2023-03-21T18:37:08.020Z,11.63
2023-03-21T18:39:34.992Z,11.97
2023-03-21T18:42:02.597Z,11.63
2023-03-21T18:44:31.089Z,12.83
2023-03-21T18:46:58.200Z,13.47
2023-03-21T18:50:06.096Z,14.73
2023-03-21T18:52:12.189Z,13.83
2023-03-21T18:54:38.888Z,13.70
2023-03-21T18:59:52.946Z,15.63
2023-03-21T19:02:19.359Z,13.80
2023-03-21T19:04:46.381Z,19.93
2023-03-21T19:07:12.849Z,16.43
2023-03-21T19:10:01.422Z,16.83
2023-03-21T19:12:27.056Z,21.47
2023-03-21T19:14:54.051Z,18.73
2023-03-21T19:20:07.533Z,17.50
2023-03-21T19:22:33.855Z,14.73
2023-03-21T19:25:00.185Z,14.93
2023-03-21T19:27:26.995Z,14.97
2023-03-21T19:30:10.658Z,14.90
2023-03-21T19:32:40.014Z,13.90
2023-03-21T19:35:07.312Z,15.80
2023-03-21T19:37:36.021Z,15.87
2023-03-21T19:40:05.181Z,16.90
2023-03-21T19:42:32.205Z,14.83
2023-03-21T19:44:58.753Z,16.20
2023-03-21T19:47:25.430Z,15.47
2023-03-21T19:52:40.429Z,16.97
2023-03-21T19:55:07.071Z,17.40
2023-03-21T19:57:34.868Z,16.80
2023-03-21T20:00:01.622Z,17.10
2023-03-21T20:02:35.502Z,16.87
2023-03-21T20:05:02.635Z,16.60
2023-03-21T20:07:30.562Z,18.10
2023-03-21T20:09:57.520Z,17.13
2023-03-21T20:12:24.036Z,15.50
2023-03-21T20:14:57.994Z,16.17
2023-03-21T20:17:28.032Z,15.37
2023-03-21T20:19:57.813Z,15.77
2023-03-21T20:22:51.587Z,16.63
2023-03-21T20:25:11.506Z,15.17
2023-03-21T20:27:42.033Z,16.23
2023-03-21T20:30:12.311Z,14.73
2023-03-21T20:32:40.059Z,15.63
2023-03-21T20:35:19.169Z,14.73
2023-03-21T20:37:52.735Z,16.00
2023-03-21T20:40:20.612Z,18.53
2023-03-21T20:42:48.681Z,16.93
2023-03-21T20:45:16.824Z,16.93
2023-03-21T20:47:43.662Z,16.57
2023-03-21T20:50:13.673Z,17.27
2023-03-21T20:53:06.395Z,17.63
2023-03-21T20:55:28.967Z,17.97
2023-03-21T20:57:55.266Z,17.17
2023-03-21T21:00:22.280Z,17.20
2023-03-21T21:02:50.061Z,15.80
2023-03-21T21:05:29.956Z,16.57
2023-03-21T21:07:57.648Z,17.50
2023-03-21T21:10:23.992Z,18.30
2023-03-21T21:12:50.380Z,17.60
2023-03-21T21:15:17.248Z,18.07
2023-03-21T21:18:05.546Z,17.70
2023-03-21T21:20:33.448Z,18.90
2023-03-21T21:23:00.915Z,19.53
2023-03-21T21:25:29.010Z,18.60
2023-03-21T21:27:55.455Z,18.33
2023-03-21T21:30:22.444Z,17.63
2023-03-21T21:32:49.283Z,18.67
2023-03-21T21:35:15.753Z,17.43
2023-03-21T21:37:42.129Z,18.47
2023-03-21T21:40:12.763Z,19.83
2023-03-21T21:42:41.185Z,18.13
2023-03-21T21:45:09.363Z,18.73
2023-03-21T21:47:35.867Z,18.57
2023-03-21T21:50:02.428Z,17.83
2023-03-21T21:52:28.714Z,17.27
2023-03-21T21:54:55.025Z,17.60
2023-03-21T21:57:22.715Z,18.97
2023-03-21T21:59:53.979Z,16.93
2023-03-21T22:02:25.285Z,17.37
2023-03-21T22:04:55.409Z,15.87
2023-03-21T22:07:24.021Z,17.40
2023-03-21T22:09:50.402Z,17.87
2023-03-21T22:12:16.830Z,18.60
2023-03-21T22:14:43.138Z,17.10
2023-03-21T22:17:09.547Z,19.10
2023-03-21T22:19:36.827Z,17.53
2023-03-21T22:22:03.773Z,19.10
2023-03-21T22:24:30.196Z,18.50
2023-03-21T22:26:59.395Z,19.90
2023-03-21T22:29:26.205Z,19.53
2023-03-21T22:31:54.215Z,20.47
2023-03-21T22:34:22.424Z,19.70
2023-03-21T22:36:50.169Z,19.33
2023-03-21T22:39:20.964Z,19.93
2023-03-21T22:41:47.266Z,20.10
2023-03-21T22:44:13.584Z,18.57
2023-03-21T22:46:40.179Z,19.10
2023-03-21T22:49:06.654Z,20.47
2023-03-21T22:51:33.031Z,18.97
2023-03-21T22:53:59.411Z,18.37
2023-03-21T22:56:25.768Z,19.57
2023-03-21T22:58:52.373Z,18.10
2023-03-21T23:01:18.768Z,18.27
2023-03-21T23:03:45.108Z,18.73
2023-03-21T23:06:11.583Z,18.27
2023-03-21T23:08:37.918Z,18.10
2023-03-21T23:11:08.365Z,17.37
2023-03-21T23:13:36.648Z,18.37
2023-03-21T23:16:04.678Z,19.93
2023-03-21T23:18:32.297Z,18.63
2023-03-21T23:20:58.637Z,18.30
2023-03-21T23:23:25.139Z,19.63
2023-03-21T23:25:52.056Z,19.37
2023-03-21T23:28:18.765Z,18.93
2023-03-21T23:30:45.370Z,19.03
2023-03-21T23:33:12.065Z,18.50
2023-03-21T23:35:38.494Z,18.37
2023-03-21T23:38:05.460Z,17.77
2023-03-21T23:40:31.815Z,17.73
2023-03-21T23:42:59.492Z,19.13
2023-03-21T23:45:25.990Z,17.57
2023-03-21T23:47:52.377Z,17.53
2023-03-21T23:50:18.827Z,17.80
2023-03-21T23:52:45.179Z,17.60
2023-03-21T23:55:11.518Z,16.50
2023-03-21T23:57:41.556Z,16.87
